Time;durP1;ratioP1;P1;durP2;ratioP2;P2;SDS_P1;SDS_P2;PMS_P1;PMS_P2;Temp;Humidity;BMP_temperature;BMP_pressure;BME280_temperature;BME280_humidity;BME280_pressure;Samples;Min_cycle;Max_cycle;Signal;HPM_P1;HPM_P2
2022/04/26 03:37:36;;;;;;;9.43;4.90;;;;;;;;;;5071314;28;20047;-41
2022/04/26 03:40:02;;;;;;;8.38;4.70;;;;;;;;;;5071340;28;20037;-41
2022/04/26 03:42:28;;;;;;;7.25;4.97;;;;;;;;;;5071311;28;20028;-42
2022/04/26 03:44:54;;;;;;;12.07;4.90;;;;;;;;;;5071086;28;20028;-42
2022/04/26 03:47:20;;;;;;;9.88;4.80;;;;;;;;;;5071297;28;20043;-42
2022/04/26 03:49:46;;;;;;;9.60;5.25;;;;;;;;;;5070806;28;20450;-42
2022/04/26 03:52:12;;;;;;;6.75;4.47;;;;;;;;;;5070889;28;20032;-43
2022/04/26 03:54:38;;;;;;;8.23;3.80;;;;;;;;;;5070865;28;20032;-44
2022/04/26 03:57:06;;;;;;;8.50;4.82;;;;;;;;;;5054151;28;20032;-43
2022/04/26 03:59:32;;;;;;;6.78;4.72;;;;;;;;;;5045906;28;20067;-44
2022/04/26 04:01:58;;;;;;;7.13;4.80;;;;;;;;;;5032993;28;20422;-43
2022/04/26 04:04:24;;;;;;;17.50;9.18;;;;;;;;;;5033130;28;20029;-43
2022/04/26 04:06:50;;;;;;;11.70;5.88;;;;;;;;;;5033184;28;20022;-42
2022/04/26 04:09:16;;;;;;;9.38;5.68;;;;;;;;;;5033114;28;20041;-44
2022/04/26 04:11:42;;;;;;;11.75;5.95;;;;;;;;;;5033071;28;20021;-45
2022/04/26 04:14:08;;;;;;;7.88;4.97;;;;;;;;;;5032876;28;20037;-42
2022/04/26 04:16:34;;;;;;;9.48;6.03;;;;;;;;;;5033123;28;20100;-46
2022/04/26 04:19:19;;;;;;;11.50;6.32;;;;;;;;;;5032806;28;20494;-42
2022/04/26 04:21:45;;;;;;;14.52;8.55;;;;;;;;;;5032824;28;20029;-42
2022/04/26 04:24:14;;;;;;;12.80;8.13;;;;;;;;;;5032956;28;20029;-42
2022/04/26 04:26:45;;;;;;;13.13;7.63;;;;;;;;;;5033011;28;20541;-41
2022/04/26 04:29:12;;;;;;;8.17;6.00;;;;;;;;;;5032938;28;20037;-42
2022/04/26 04:31:41;;;;;;;10.20;5.85;;;;;;;;;;5033272;28;20025;-41
2022/04/26 04:34:07;;;;;;;12.23;6.10;;;;;;;;;;5033111;28;20029;-42
2022/04/26 04:36:33;;;;;;;11.75;6.32;;;;;;;;;;5032963;28;20025;-42
2022/04/26 04:38:59;;;;;;;13.05;6.57;;;;;;;;;;5032551;28;20029;-42
2022/04/26 04:41:25;;;;;;;9.48;5.32;;;;;;;;;;5032901;28;20069;-41
2022/04/26 04:43:52;;;;;;;15.80;6.10;;;;;;;;;;5032606;28;20032;-41
2022/04/26 04:46:20;;;;;;;11.65;6.20;;;;;;;;;;5032591;28;20477;-41
2022/04/26 04:48:46;;;;;;;9.30;6.13;;;;;;;;;;5032438;28;20036;-41
2022/04/26 04:51:12;;;;;;;10.52;5.78;;;;;;;;;;5032512;28;20055;-40
2022/04/26 04:53:38;;;;;;;7.25;5.07;;;;;;;;;;5033735;28;20021;-43
2022/04/26 04:56:08;;;;;;;11.40;6.65;;;;;;;;;;5036115;28;20024;-43
2022/04/26 04:58:34;;;;;;;13.10;9.07;;;;;;;;;;5036042;28;20041;-41
2022/04/26 05:01:00;;;;;;;13.82;8.27;;;;;;;;;;5035987;28;20021;-42
2022/04/26 05:03:26;;;;;;;32.95;18.02;;;;;;;;;;5036103;28;20029;-41
2022/04/26 05:05:52;;;;;;;16.02;9.27;;;;;;;;;;5035996;28;20026;-42
2022/04/26 05:08:18;;;;;;;23.13;14.13;;;;;;;;;;5035904;28;20034;-43
2022/04/26 05:10:47;;;;;;;19.92;11.88;;;;;;;;;;5034572;28;20083;-42
2022/04/26 05:13:13;;;;;;;17.48;8.45;;;;;;;;;;5035888;28;20113;-42
2022/04/26 05:15:42;;;;;;;15.27;6.80;;;;;;;;;;5035905;28;20025;-41
2022/04/26 05:18:08;;;;;;;39.17;7.18;;;;;;;;;;5035613;28;20044;-43
2022/04/26 05:20:34;;;;;;;19.90;8.15;;;;;;;;;;5035668;28;20434;-44
2022/04/26 05:25:45;;;;;;;25.55;12.45;;;;;;;;;;5036109;28;20076;-43
2022/04/26 05:28:11;;;;;;;27.80;14.68;;;;;;;;;;5035563;28;20021;-53
2022/04/26 05:30:37;;;;;;;10.15;6.57;;;;;;;;;;5035767;28;20026;-43
2022/04/26 05:33:03;;;;;;;11.35;4.63;;;;;;;;;;5035579;28;20064;-41
2022/04/26 05:35:29;;;;;;;10.93;6.28;;;;;;;;;;5035530;28;20026;-41
2022/04/26 05:37:55;;;;;;;14.02;7.13;;;;;;;;;;5033698;28;20115;-42
2022/04/26 05:40:22;;;;;;;13.85;6.82;;;;;;;;;;5035452;28;20026;-42
2022/04/26 05:42:48;;;;;;;10.95;5.25;;;;;;;;;;5035362;28;20477;-42
2022/04/26 05:45:14;;;;;;;5.30;3.65;;;;;;;;;;5035328;28;20155;-42
2022/04/26 05:47:44;;;;;;;7.18;4.13;;;;;;;;;;5035171;28;20028;-42
2022/04/26 05:50:10;;;;;;;5.90;3.80;;;;;;;;;;5035074;28;20498;-42
2022/04/26 05:52:36;;;;;;;3.85;3.05;;;;;;;;;;5035122;28;20412;-42
2022/04/26 05:55:07;;;;;;;5.88;4.10;;;;;;;;;;5035305;28;20028;-41
2022/04/26 05:57:42;;;;;;;7.60;3.72;;;;;;;;;;5034980;28;20026;-43
2022/04/26 06:00:08;;;;;;;4.90;3.85;;;;;;;;;;5035184;28;20417;-43
2022/04/26 06:02:35;;;;;;;4.25;2.80;;;;;;;;;;5033699;28;20023;-43
2022/04/26 06:05:01;;;;;;;5.13;3.00;;;;;;;;;;5033855;28;20022;-44
2022/04/26 06:07:27;;;;;;;3.42;2.50;;;;;;;;;;5034822;28;20064;-42
2022/04/26 06:09:54;;;;;;;4.25;3.10;;;;;;;;;;5034840;28;20056;-42
2022/04/26 06:12:26;;;;;;;8.32;3.40;;;;;;;;;;5034642;28;20040;-42
2022/04/26 06:14:56;;;;;;;4.97;3.50;;;;;;;;;;5034591;28;20041;-41
2022/04/26 06:17:25;;;;;;;6.22;2.95;;;;;;;;;;5034625;28;20026;-42
2022/04/26 06:19:51;;;;;;;18.55;13.77;;;;;;;;;;5034372;28;20320;-41
2022/04/26 06:22:17;;;;;;;34.85;23.75;;;;;;;;;;5034454;28;20052;-41
2022/04/26 06:24:44;;;;;;;32.25;22.67;;;;;;;;;;5034529;28;20022;-42
2022/04/26 06:27:10;;;;;;;20.13;14.77;;;;;;;;;;5034312;28;20030;-41
2022/04/26 06:29:36;;;;;;;17.10;10.15;;;;;;;;;;5034411;28;20026;-43
2022/04/26 06:32:02;;;;;;;28.25;21.30;;;;;;;;;;5034293;28;20025;-41
2022/04/26 06:34:29;;;;;;;50.15;31.63;;;;;;;;;;5034171;28;20025;-41
2022/04/26 06:36:57;;;;;;;35.00;21.13;;;;;;;;;;5034155;28;20018;-42
2022/04/26 06:39:23;;;;;;;30.73;16.65;;;;;;;;;;5034061;28;20378;-43
2022/04/26 06:41:49;;;;;;;17.13;9.95;;;;;;;;;;5034005;28;20022;-42
2022/04/26 06:44:16;;;;;;;14.23;8.85;;;;;;;;;;5032765;28;20037;-42
2022/04/26 06:46:42;;;;;;;10.73;7.18;;;;;;;;;;5034130;28;20028;-41
2022/04/26 06:49:08;;;;;;;41.97;26.02;;;;;;;;;;5033909;28;20462;-41
2022/04/26 06:51:42;;;;;;;24.85;16.75;;;;;;;;;;5033846;28;20087;-41
2022/04/26 06:54:08;;;;;;;16.52;10.10;;;;;;;;;;5033814;28;20506;-42
2022/04/26 06:56:34;;;;;;;9.52;5.25;;;;;;;;;;5033856;28;20053;-42
2022/04/26 06:59:00;;;;;;;6.57;4.68;;;;;;;;;;5033787;28;20496;-42
2022/04/26 07:01:27;;;;;;;2.22;1.75;;;;;;;;;;5034032;28;20026;-42
2022/04/26 07:03:53;;;;;;;6.47;4.10;;;;;;;;;;5033780;28;20112;-42
2022/04/26 07:06:19;;;;;;;9.82;5.25;;;;;;;;;;5033831;28;20053;-42
2022/04/26 07:08:46;;;;;;;4.25;2.92;;;;;;;;;;5033613;28;20441;-43
2022/04/26 07:11:15;;;;;;;2.65;1.98;;;;;;;;;;5033564;28;20032;-43
2022/04/26 07:13:41;;;;;;;4.40;3.20;;;;;;;;;;5033816;28;20108;-43
2022/04/26 07:16:08;;;;;;;3.10;2.35;;;;;;;;;;5033490;28;20026;-43
2022/04/26 07:18:34;;;;;;;3.28;2.40;;;;;;;;;;5033654;28;20086;-44
2022/04/26 07:21:00;;;;;;;8.23;5.15;;;;;;;;;;5033544;28;20037;-44
2022/04/26 07:23:26;;;;;;;6.78;4.35;;;;;;;;;;5033404;28;20022;-45
2022/04/26 07:25:54;;;;;;;9.18;4.88;;;;;;;;;;5033509;28;20036;-43
2022/04/26 07:28:20;;;;;;;10.57;6.70;;;;;;;;;;5033411;28;20036;-43
2022/04/26 07:30:47;;;;;;;18.00;10.10;;;;;;;;;;5033389;28;20032;-44
2022/04/26 07:36:19;;;;;;;13.30;5.65;;;;;;;;;;5031256;28;20478;-44
2022/04/26 07:38:45;;;;;;;5.80;3.20;;;;;;;;;;5030963;28;20113;-44
2022/04/26 07:41:12;;;;;;;37.30;24.40;;;;;;;;;;5030762;28;20397;-43
2022/04/26 07:43:38;;;;;;;5.47;3.58;;;;;;;;;;5031251;28;20037;-43
2022/04/26 07:46:04;;;;;;;8.65;2.60;;;;;;;;;;5031162;28;20032;-45
2022/04/26 07:48:30;;;;;;;13.35;4.82;;;;;;;;;;5031051;28;20030;-42
2022/04/26 07:50:56;;;;;;;13.63;5.68;;;;;;;;;;5030606;28;20062;-44
2022/04/26 07:53:25;;;;;;;2.67;1.90;;;;;;;;;;5031079;28;20540;-44
2022/04/26 07:55:51;;;;;;;144.65;81.53;;;;;;;;;;5030888;28;20030;-43
2022/04/26 07:58:17;;;;;;;15.50;9.52;;;;;;;;;;5030975;28;20030;-44
2022/04/26 08:00:43;;;;;;;7.85;5.20;;;;;;;;;;5031226;28;20042;-44
2022/04/26 08:03:10;;;;;;;28.40;18.08;;;;;;;;;;5031043;28;20060;-42
2022/04/26 08:05:36;;;;;;;11.23;7.03;;;;;;;;;;5031046;28;20108;-44
2022/04/26 08:08:02;;;;;;;13.70;7.53;;;;;;;;;;5032775;28;20114;-43
2022/04/26 08:10:28;;;;;;;23.25;12.48;;;;;;;;;;5033250;28;20021;-43
2022/04/26 08:12:54;;;;;;;28.05;16.63;;;;;;;;;;5032964;28;20026;-44
2022/04/26 08:15:20;;;;;;;5.70;3.88;;;;;;;;;;5033041;28;20049;-44
2022/04/26 08:17:48;;;;;;;22.10;12.43;;;;;;;;;;5033012;28;20044;-44
2022/04/26 08:20:14;;;;;;;10.48;6.03;;;;;;;;;;5032865;28;20410;-44
2022/04/26 08:22:43;;;;;;;17.75;9.85;;;;;;;;;;5032956;28;20026;-44
2022/04/26 08:27:54;;;;;;;13.40;8.40;;;;;;;;;;5033433;28;20040;-45
2022/04/26 08:30:23;;;;;;;31.90;18.77;;;;;;;;;;5036754;28;20045;-41
2022/04/26 08:32:49;;;;;;;29.90;17.98;;;;;;;;;;5036709;28;20026;-41
2022/04/26 08:35:18;;;;;;;57.30;34.40;;;;;;;;;;5036477;28;20453;-43
2022/04/26 08:37:44;;;;;;;6.78;5.13;;;;;;;;;;5036640;28;20043;-43
2022/04/26 08:40:10;;;;;;;21.67;13.85;;;;;;;;;;5036340;28;20022;-42
2022/04/26 08:42:40;;;;;;;8.77;5.00;;;;;;;;;;5036593;28;20034;-43
2022/04/26 08:45:07;;;;;;;12.40;7.90;;;;;;;;;;5036452;28;20049;-42
2022/04/26 08:53:03;;;;;;;7.03;5.13;;;;;;;;;;5036677;28;20675;-43
2022/04/26 08:55:31;;;;;;;29.92;19.35;;;;;;;;;;5036315;28;20040;-42
2022/04/26 08:57:58;;;;;;;5.15;3.45;;;;;;;;;;5034869;28;20125;-43
2022/04/26 09:00:24;;;;;;;8.77;6.22;;;;;;;;;;5036005;28;20350;-42
2022/04/26 09:03:03;;;;;;;23.25;12.75;;;;;;;;;;5036286;28;20381;-44
2022/04/26 09:05:32;;;;;;;9.80;6.95;;;;;;;;;;5036169;28;20030;-43
2022/04/26 09:07:59;;;;;;;11.40;7.13;;;;;;;;;;5034614;28;20061;-43
2022/04/26 09:10:25;;;;;;;13.55;8.60;;;;;;;;;;5035934;28;20025;-42
2022/04/26 09:13:07;;;;;;;15.27;9.70;;;;;;;;;;5034694;28;20023;-43
2022/04/26 09:15:37;;;;;;;21.25;15.18;;;;;;;;;;5035849;28;20034;-43
2022/04/26 09:18:30;;;;;;;191.75;121.50;;;;;;;;;;5035850;28;20028;-44
2022/04/26 09:20:56;;;;;;;43.15;28.20;;;;;;;;;;5036596;28;20436;-44
2022/04/26 09:23:22;;;;;;;80.20;51.72;;;;;;;;;;5035485;28;20029;-43
2022/04/26 09:25:51;;;;;;;39.70;25.50;;;;;;;;;;5035646;28;20033;-43
2022/04/26 09:28:25;;;;;;;19.88;13.00;;;;;;;;;;5035692;28;20018;-43
2022/04/26 09:30:52;;;;;;;4.30;3.17;;;;;;;;;;5035550;28;20469;-45
2022/04/26 09:33:33;;;;;;;6.22;2.97;;;;;;;;;;5035587;28;20030;-42
2022/04/26 09:36:03;;;;;;;50.25;27.92;;;;;;;;;;5035424;28;20366;-41
2022/04/26 09:38:33;;;;;;;26.20;13.33;;;;;;;;;;5035386;28;20025;-43
2022/04/26 09:41:04;;;;;;;23.13;10.98;;;;;;;;;;5035408;28;20040;-44
2022/04/26 09:43:30;;;;;;;24.20;12.77;;;;;;;;;;5035429;28;20453;-44
2022/04/26 09:45:58;;;;;;;20.52;7.88;;;;;;;;;;5035384;28;20052;-43
2022/04/26 09:48:28;;;;;;;4.32;2.70;;;;;;;;;;5035211;28;20497;-43
2022/04/26 09:50:56;;;;;;;4.63;3.10;;;;;;;;;;5035085;28;20056;-43
2022/04/26 09:53:22;;;;;;;19.48;9.38;;;;;;;;;;5035063;28;20449;-43
2022/04/26 09:55:49;;;;;;;34.17;15.75;;;;;;;;;;5035276;28;20120;-43
2022/04/26 09:58:18;;;;;;;15.73;6.97;;;;;;;;;;5034980;28;20029;-44
2022/04/26 10:00:47;;;;;;;4.93;3.45;;;;;;;;;;5035182;28;20029;-43
2022/04/26 10:03:16;;;;;;;10.27;4.45;;;;;;;;;;5034981;28;20108;-42
2022/04/26 10:05:43;;;;;;;3.05;2.20;;;;;;;;;;5035035;28;20112;-43
2022/04/26 10:08:10;;;;;;;3.90;2.60;;;;;;;;;;5033486;28;20491;-44
2022/04/26 10:10:36;;;;;;;4.07;2.40;;;;;;;;;;5035315;28;20028;-44
2022/04/26 10:15:52;;;;;;;7.85;5.38;;;;;;;;;;5034973;28;20032;-44
2022/04/26 10:18:35;;;;;;;2.50;1.50;;;;;;;;;;5034626;28;20048;-44
2022/04/26 10:21:02;;;;;;;7.85;5.00;;;;;;;;;;5034847;28;20047;-43
2022/04/26 10:23:28;;;;;;;22.08;9.40;;;;;;;;;;5034567;28;20040;-43
2022/04/26 10:26:13;;;;;;;4.07;2.45;;;;;;;;;;5050229;28;20025;-43
2022/04/26 10:28:51;;;;;;;8.80;4.32;;;;;;;;;;5054375;28;20028;-44
2022/04/26 10:31:22;;;;;;;2.22;1.58;;;;;;;;;;5054647;28;20070;-43
2022/04/26 10:33:48;;;;;;;8.48;3.60;;;;;;;;;;5054051;28;20032;-43
2022/04/26 10:36:20;;;;;;;7.57;2.78;;;;;;;;;;5054484;28;20031;-43
2022/04/26 10:39:16;;;;;;;4.38;2.42;;;;;;;;;;5053814;28;20433;-43
2022/04/26 10:41:43;;;;;;;3.97;2.47;;;;;;;;;;5054445;28;20025;-44
2022/04/26 10:44:16;;;;;;;10.73;4.93;;;;;;;;;;5053831;28;20028;-42
2022/04/26 10:46:42;;;;;;;7.93;3.75;;;;;;;;;;5053706;28;20028;-42
2022/04/26 10:49:29;;;;;;;12.65;7.90;;;;;;;;;;5054024;28;20048;-42
2022/04/26 10:51:55;;;;;;;9.48;4.47;;;;;;;;;;5053674;28;20044;-44
2022/04/26 10:54:40;;;;;;;5.20;3.25;;;;;;;;;;5054064;28;20033;-41
2022/04/26 10:57:06;;;;;;;3.72;2.08;;;;;;;;;;5053901;28;20103;-44
2022/04/26 10:59:32;;;;;;;2.70;1.80;;;;;;;;;;5053856;28;20037;-42
2022/04/26 11:01:59;;;;;;;3.05;1.83;;;;;;;;;;5053808;28;20035;-43
2022/04/26 11:04:29;;;;;;;12.00;2.30;;;;;;;;;;5053788;28;20029;-43
2022/04/26 11:06:58;;;;;;;3.28;1.25;;;;;;;;;;5053836;28;20017;-44
2022/04/26 11:09:24;;;;;;;4.63;1.25;;;;;;;;;;5053577;28;20384;-42
2022/04/26 11:11:51;;;;;;;4.53;1.67;;;;;;;;;;5053944;28;20025;-42
2022/04/26 11:14:20;;;;;;;4.43;1.40;;;;;;;;;;5053743;28;20021;-42
2022/04/26 11:16:56;;;;;;;2.45;1.10;;;;;;;;;;5053564;28;20119;-43
2022/04/26 11:19:29;;;;;;;1.42;1.17;;;;;;;;;;5053554;28;20033;-41
2022/04/26 11:21:56;;;;;;;2.80;1.52;;;;;;;;;;5054035;28;20468;-43
2022/04/26 11:29:57;;;;;;;3.33;2.35;;;;;;;;;;5053740;28;20040;-42
2022/04/26 11:32:30;;;;;;;1.33;1.08;;;;;;;;;;5053489;28;20036;-43
2022/04/26 11:34:56;;;;;;;4.60;1.65;;;;;;;;;;5052199;28;20541;-43
2022/04/26 11:37:25;;;;;;;5.25;2.67;;;;;;;;;;5053122;28;20107;-43
2022/04/26 11:39:51;;;;;;;13.70;6.70;;;;;;;;;;5053189;28;20084;-43
2022/04/26 11:42:17;;;;;;;10.30;4.72;;;;;;;;;;5053121;28;20021;-41
2022/04/26 11:45:03;;;;;;;3.75;1.73;;;;;;;;;;5053176;28;20031;-43
2022/04/26 11:47:48;;;;;;;15.65;7.90;;;;;;;;;;5052942;28;20036;-42
2022/04/26 11:50:23;;;;;;;5.20;1.90;;;;;;;;;;5052890;28;20060;-43
2022/04/26 11:52:50;;;;;;;10.32;5.80;;;;;;;;;;5053273;28;20473;-44
2022/04/26 11:55:20;;;;;;;3.88;2.92;;;;;;;;;;5053114;28;20021;-44
2022/04/26 11:57:47;;;;;;;2.78;1.42;;;;;;;;;;5053254;28;20029;-44
2022/04/26 12:00:14;;;;;;;2.80;1.35;;;;;;;;;;5052996;28;20047;-44
2022/04/26 12:02:41;;;;;;;2.13;1.08;;;;;;;;;;5054540;28;20525;-43
2022/04/26 12:05:08;;;;;;;1.02;0.52;;;;;;;;;;5056316;28;20108;-43
2022/04/26 12:07:34;;;;;;;6.30;1.30;;;;;;;;;;5044261;28;20020;-44
2022/04/26 12:10:01;;;;;;;1.17;0.88;;;;;;;;;;5056059;28;20108;-43
2022/04/26 12:12:27;;;;;;;4.15;1.80;;;;;;;;;;5056985;28;20032;-44
2022/04/26 12:14:55;;;;;;;1.58;1.10;;;;;;;;;;5056945;28;20057;-42
2022/04/26 12:17:22;;;;;;;6.43;4.05;;;;;;;;;;5056879;28;20161;-43
2022/04/26 12:19:51;;;;;;;5.07;2.42;;;;;;;;;;5056897;28;20477;-42
2022/04/26 12:22:19;;;;;;;2.15;1.60;;;;;;;;;;5056887;28;20064;-43
2022/04/26 12:24:49;;;;;;;5.20;2.10;;;;;;;;;;5056816;28;20059;-42
2022/04/26 12:27:16;;;;;;;1.98;1.55;;;;;;;;;;5056680;28;20027;-42
2022/04/26 12:29:43;;;;;;;2.20;1.45;;;;;;;;;;5056986;28;20384;-42
2022/04/26 12:32:14;;;;;;;8.73;3.45;;;;;;;;;;5056699;28;20029;-43
2022/04/26 12:34:56;;;;;;;3.60;2.10;;;;;;;;;;5036601;28;20425;-44
2022/04/26 12:37:27;;;;;;;3.00;1.63;;;;;;;;;;5036548;28;20029;-42
2022/04/26 12:40:00;;;;;;;3.95;1.35;;;;;;;;;;5041503;28;20064;-43
2022/04/26 12:42:29;;;;;;;1.38;1.02;;;;;;;;;;5056520;28;20021;-43
2022/04/26 12:44:59;;;;;;;3.45;1.17;;;;;;;;;;5056327;28;20029;-43
2022/04/26 12:50:33;;;;;;;4.03;1.52;;;;;;;;;;5056258;28;20130;-42
2022/04/26 12:53:02;;;;;;;2.33;1.17;;;;;;;;;;5056387;28;20092;-44
2022/04/26 12:55:34;;;;;;;2.03;1.45;;;;;;;;;;5056182;28;20040;-44
2022/04/26 12:58:05;;;;;;;2.30;1.95;;;;;;;;;;5055157;28;20029;-43
2022/04/26 13:00:32;;;;;;;8.10;4.13;;;;;;;;;;5056007;28;20032;-44
2022/04/26 13:03:03;;;;;;;6.47;1.60;;;;;;;;;;5056380;28;20109;-44
2022/04/26 13:05:35;;;;;;;3.20;1.35;;;;;;;;;;5056182;28;20079;-44
2022/04/26 13:08:02;;;;;;;5.22;1.55;;;;;;;;;;5055899;28;20067;-43
2022/04/26 13:10:28;;;;;;;2.25;1.63;;;;;;;;;;5055895;28;20025;-43
2022/04/26 13:12:54;;;;;;;3.33;1.88;;;;;;;;;;5055860;28;20060;-43
2022/04/26 13:15:23;;;;;;;3.70;1.65;;;;;;;;;;5053231;28;20350;-43
2022/04/26 13:17:52;;;;;;;4.07;0.85;;;;;;;;;;5053176;28;20016;-44
2022/04/26 13:20:18;;;;;;;3.13;0.95;;;;;;;;;;5055795;28;20455;-45
2022/04/26 13:22:45;;;;;;;1.35;0.60;;;;;;;;;;5055977;28;20021;-44
2022/04/26 13:25:13;;;;;;;3.22;1.20;;;;;;;;;;5055091;28;20036;-44
2022/04/26 13:27:39;;;;;;;3.10;1.00;;;;;;;;;;5055622;28;20158;-44
2022/04/26 13:30:09;;;;;;;1.70;0.90;;;;;;;;;;5055528;28;20108;-43
2022/04/26 13:32:35;;;;;;;2.80;0.73;;;;;;;;;;5055469;28;20100;-43
2022/04/26 13:35:01;;;;;;;2.95;1.60;;;;;;;;;;5055499;28;20484;-43
2022/04/26 13:37:28;;;;;;;1.02;0.70;;;;;;;;;;5055406;28;20061;-44
2022/04/26 13:39:57;;;;;;;2.60;1.50;;;;;;;;;;5055149;28;20400;-43
2022/04/26 13:42:24;;;;;;;1.77;0.93;;;;;;;;;;5055297;28;20100;-43
2022/04/26 13:44:52;;;;;;;3.70;1.25;;;;;;;;;;5055223;28;20024;-43
2022/04/26 13:47:19;;;;;;;3.22;1.25;;;;;;;;;;5055303;28;20071;-43
2022/04/26 13:49:47;;;;;;;3.38;0.93;;;;;;;;;;5054977;28;20136;-43
2022/04/26 13:52:13;;;;;;;1.60;0.75;;;;;;;;;;5055480;28;20061;-44
2022/04/26 13:54:42;;;;;;;2.30;0.98;;;;;;;;;;5054861;28;20063;-44
2022/04/26 13:57:08;;;;;;;2.35;0.82;;;;;;;;;;5055011;28;20021;-43
2022/04/26 13:59:34;;;;;;;2.42;1.20;;;;;;;;;;5055116;28;20090;-43
2022/04/26 14:02:00;;;;;;;2.65;0.90;;;;;;;;;;5055250;28;20104;-43
2022/04/26 14:04:26;;;;;;;1.35;0.93;;;;;;;;;;5054893;28;20029;-43
2022/04/26 14:06:53;;;;;;;1.05;0.93;;;;;;;;;;5054906;28;20025;-43
2022/04/26 14:09:21;;;;;;;1.85;1.20;;;;;;;;;;5052708;28;20504;-43
2022/04/26 14:11:51;;;;;;;0.95;0.85;;;;;;;;;;5054874;28;20025;-42
2022/04/26 14:22:33;;;;;;;2.65;1.00;;;;;;;;;;5054898;28;20052;-44
2022/04/26 14:25:00;;;;;;;2.45;1.27;;;;;;;;;;5054516;28;20064;-44
2022/04/26 14:27:33;;;;;;;3.67;1.30;;;;;;;;;;5053607;28;20053;-44
2022/04/26 14:29:59;;;;;;;2.83;1.40;;;;;;;;;;5054765;28;20027;-42
2022/04/26 14:32:25;;;;;;;2.67;1.40;;;;;;;;;;5054373;28;20024;-44
2022/04/26 14:34:51;;;;;;;2.03;1.10;;;;;;;;;;5054316;28;20112;-43
2022/04/26 14:37:19;;;;;;;8.25;1.55;;;;;;;;;;5053879;28;20033;-44
2022/04/26 14:39:45;;;;;;;5.30;1.25;;;;;;;;;;5054346;28;20037;-43
2022/04/26 14:42:11;;;;;;;4.75;1.40;;;;;;;;;;5054543;28;20100;-43
2022/04/26 14:44:37;;;;;;;4.57;2.13;;;;;;;;;;5052824;28;20431;-42
2022/04/26 14:47:06;;;;;;;3.45;1.83;;;;;;;;;;5053754;28;20485;-42
2022/04/26 14:49:33;;;;;;;1.40;1.17;;;;;;;;;;5053819;28;20061;-42
2022/04/26 14:51:59;;;;;;;4.25;1.45;;;;;;;;;;5054182;28;20060;-43
2022/04/26 14:54:25;;;;;;;2.97;1.20;;;;;;;;;;5053580;28;20029;-42
2022/04/26 14:56:51;;;;;;;3.85;1.35;;;;;;;;;;5053973;28;20021;-42
2022/04/26 14:59:19;;;;;;;5.85;1.85;;;;;;;;;;5053863;28;20052;-43
2022/04/26 15:01:46;;;;;;;6.43;1.40;;;;;;;;;;5052846;28;20040;-42
2022/04/26 15:04:22;;;;;;;1.33;1.05;;;;;;;;;;5053765;28;20036;-42
2022/04/26 15:06:49;;;;;;;3.67;1.13;;;;;;;;;;5053944;28;20051;-42
2022/04/26 15:17:30;;;;;;;5.45;3.30;;;;;;;;;;5051206;28;20388;-42
2022/04/26 15:19:56;;;;;;;1.33;1.20;;;;;;;;;;5052816;28;20029;-43
2022/04/26 15:22:23;;;;;;;18.10;9.15;;;;;;;;;;5052857;28;20032;-43
2022/04/26 15:24:54;;;;;;;13.02;7.18;;;;;;;;;;5052668;28;20389;-43
2022/04/26 15:27:20;;;;;;;19.57;11.07;;;;;;;;;;5053035;28;20132;-44
2022/04/26 15:29:47;;;;;;;40.50;19.00;;;;;;;;;;5052875;28;20308;-45
2022/04/26 15:32:13;;;;;;;25.38;15.05;;;;;;;;;;5052778;28;20406;-44
2022/04/26 15:34:39;;;;;;;13.60;6.80;;;;;;;;;;5052536;28;20035;-44
2022/04/26 15:37:06;;;;;;;4.57;2.90;;;;;;;;;;5051823;28;20105;-44
2022/04/26 15:39:33;;;;;;;16.77;10.90;;;;;;;;;;5052435;28;20031;-44
2022/04/26 15:42:01;;;;;;;26.70;14.75;;;;;;;;;;5052138;28;20028;-44
2022/04/26 15:44:30;;;;;;;16.95;8.48;;;;;;;;;;5052858;28;20074;-43
2022/04/26 15:46:56;;;;;;;6.75;4.20;;;;;;;;;;5052837;28;20025;-46
2022/04/26 15:49:24;;;;;;;4.05;1.92;;;;;;;;;;5039364;28;20048;-44
2022/04/26 15:51:51;;;;;;;11.90;3.78;;;;;;;;;;5022158;28;20167;-43
2022/04/26 15:54:17;;;;;;;16.50;8.43;;;;;;;;;;5021893;28;20029;-42
2022/04/26 15:56:44;;;;;;;13.68;8.32;;;;;;;;;;5020525;28;20035;-43
2022/04/26 15:59:10;;;;;;;12.93;8.05;;;;;;;;;;5020661;28;20457;-43
2022/04/26 16:01:39;;;;;;;15.30;9.02;;;;;;;;;;5020686;28;20029;-44
2022/04/26 16:04:05;;;;;;;7.60;4.30;;;;;;;;;;5021852;28;20033;-43
2022/04/26 16:06:32;;;;;;;20.65;10.32;;;;;;;;;;5020704;28;20516;-44
2022/04/26 16:20:28;;;;;;;21.55;12.48;;;;;;;;;;5020654;28;20021;-43
2022/04/26 16:22:43;;;;;;;9.73;5.07;;;;;;;;;;5020739;28;20041;-43
2022/04/26 16:25:09;;;;;;;11.05;5.70;;;;;;;;;;5021382;28;20059;-43
2022/04/26 16:27:38;;;;;;;19.45;11.18;;;;;;;;;;5020550;28;20331;-43
2022/04/26 16:30:05;;;;;;;21.58;10.90;;;;;;;;;;5021359;28;20021;-43
2022/04/26 16:32:33;;;;;;;17.77;10.73;;;;;;;;;;5020337;28;20017;-43
2022/04/26 16:35:00;;;;;;;15.00;5.47;;;;;;;;;;5030185;28;20052;-43
2022/04/26 16:37:26;;;;;;;8.10;4.72;;;;;;;;;;5020401;28;20273;-42
2022/04/26 16:39:52;;;;;;;17.80;10.27;;;;;;;;;;5020962;28;20536;-42
2022/04/26 16:42:18;;;;;;;35.65;14.93;;;;;;;;;;5020250;28;20133;-43
2022/04/26 16:44:47;;;;;;;13.18;8.52;;;;;;;;;;5021133;28;20028;-43
2022/04/26 16:47:13;;;;;;;19.45;11.13;;;;;;;;;;5021479;28;20018;-45
2022/04/26 16:49:41;;;;;;;12.10;6.57;;;;;;;;;;5021657;28;20449;-43
2022/04/26 16:52:08;;;;;;;8.00;4.40;;;;;;;;;;5023868;28;20041;-43
2022/04/26 16:54:36;;;;;;;11.85;6.30;;;;;;;;;;5023816;28;20219;-42
2022/04/26 16:57:03;;;;;;;10.93;6.18;;;;;;;;;;5024701;28;20032;-43
2022/04/26 16:59:30;;;;;;;14.27;6.65;;;;;;;;;;5023986;28;20021;-42
2022/04/26 17:01:56;;;;;;;12.20;8.07;;;;;;;;;;5023786;28;20033;-42
2022/04/26 17:04:22;;;;;;;11.13;5.38;;;;;;;;;;5023615;28;20068;-42
2022/04/26 17:06:49;;;;;;;9.23;5.90;;;;;;;;;;5023606;28;20022;-43
2022/04/26 17:09:17;;;;;;;13.32;5.60;;;;;;;;;;5023475;28;20537;-43
2022/04/26 17:11:43;;;;;;;10.32;5.75;;;;;;;;;;5023340;28;20033;-43
2022/04/26 17:14:17;;;;;;;13.15;5.15;;;;;;;;;;5023434;28;20030;-43
2022/04/26 17:16:44;;;;;;;13.18;7.65;;;;;;;;;;5023372;28;20144;-43
2022/04/26 17:19:12;;;;;;;15.60;5.70;;;;;;;;;;5023314;28;20037;-43
2022/04/26 17:21:38;;;;;;;14.35;5.03;;;;;;;;;;5023339;28;20041;-43
2022/04/26 17:24:04;;;;;;;8.07;3.72;;;;;;;;;;5023044;28;20064;-44
2022/04/26 17:26:31;;;;;;;6.10;3.58;;;;;;;;;;5023473;28;20028;-44
2022/04/26 17:28:58;;;;;;;5.97;3.78;;;;;;;;;;5024109;28;20433;-44
2022/04/26 17:31:24;;;;;;;6.15;3.13;;;;;;;;;;5023329;28;20029;-43
2022/04/26 17:33:52;;;;;;;6.97;2.90;;;;;;;;;;5023644;28;20072;-43
2022/04/26 17:36:18;;;;;;;10.77;3.83;;;;;;;;;;5023486;28;20789;-45
2022/04/26 17:38:44;;;;;;;8.55;4.72;;;;;;;;;;5023579;28;20025;-45
2022/04/26 17:41:10;;;;;;;7.80;3.72;;;;;;;;;;5023226;28;20033;-44
2022/04/26 17:43:38;;;;;;;12.77;7.00;;;;;;;;;;5022942;28;20024;-43
2022/04/26 17:46:11;;;;;;;29.65;11.27;;;;;;;;;;5022867;28;20030;-43
2022/04/26 17:48:37;;;;;;;11.85;6.20;;;;;;;;;;5022862;28;20036;-43
2022/04/26 17:51:03;;;;;;;31.90;17.05;;;;;;;;;;5025948;28;20086;-42
2022/04/26 17:56:30;;;;;;;19.23;8.75;;;;;;;;;;5028336;28;20875;-44
2022/04/26 17:58:56;;;;;;;37.70;19.77;;;;;;;;;;5028679;28;20021;-44
2022/04/26 18:01:22;;;;;;;12.90;7.82;;;;;;;;;;5026673;28;20265;-43
2022/04/26 18:03:48;;;;;;;18.95;10.85;;;;;;;;;;5028849;28;20021;-43
2022/04/26 18:06:16;;;;;;;20.65;10.52;;;;;;;;;;5028897;28;20048;-42
2022/04/26 18:08:43;;;;;;;36.13;20.38;;;;;;;;;;5028769;28;20020;-43
2022/04/26 18:11:10;;;;;;;27.40;15.23;;;;;;;;;;5028735;28;20466;-44
2022/04/26 18:13:37;;;;;;;31.73;17.75;;;;;;;;;;5029243;28;20024;-44
2022/04/26 18:16:04;;;;;;;11.52;7.20;;;;;;;;;;5028088;28;20781;-44
2022/04/26 18:18:31;;;;;;;9.10;6.88;;;;;;;;;;5028936;28;20025;-44
2022/04/26 18:20:59;;;;;;;22.15;12.50;;;;;;;;;;5028697;28;20528;-42
2022/04/26 18:23:26;;;;;;;34.15;15.80;;;;;;;;;;5022289;28;20025;-44
2022/04/26 18:26:11;;;;;;;14.55;8.00;;;;;;;;;;5022247;28;20062;-46
2022/04/26 18:29:00;;;;;;;24.10;12.68;;;;;;;;;;5022262;28;20079;-43
2022/04/26 18:31:29;;;;;;;14.07;6.43;;;;;;;;;;5022132;28;20028;-45
2022/04/26 18:33:56;;;;;;;12.13;7.13;;;;;;;;;;5021753;28;20025;-44
2022/04/26 18:36:22;;;;;;;23.65;12.70;;;;;;;;;;5022357;28;20025;-44
2022/04/26 18:38:52;;;;;;;24.48;12.55;;;;;;;;;;5031569;28;20036;-43
2022/04/26 18:41:19;;;;;;;17.50;8.75;;;;;;;;;;5023306;28;20072;-45
2022/04/26 18:43:47;;;;;;;20.17;10.75;;;;;;;;;;5021518;28;20029;-44
2022/04/26 18:46:16;;;;;;;21.42;11.93;;;;;;;;;;5021477;28;20500;-44
2022/04/26 18:48:45;;;;;;;46.67;24.63;;;;;;;;;;5031180;28;20026;-44
2022/04/26 18:51:12;;;;;;;20.27;9.35;;;;;;;;;;5021563;28;20429;-41
2022/04/26 18:53:39;;;;;;;11.88;6.95;;;;;;;;;;5022859;28;20047;-41
2022/04/26 18:56:06;;;;;;;9.73;5.00;;;;;;;;;;5021541;28;20075;-44
2022/04/26 18:58:33;;;;;;;10.95;6.00;;;;;;;;;;5021545;28;20474;-42
2022/04/26 19:01:00;;;;;;;13.63;6.75;;;;;;;;;;5021384;28;20548;-43
2022/04/26 19:03:30;;;;;;;20.60;11.95;;;;;;;;;;5021471;28;20025;-42
2022/04/26 19:05:56;;;;;;;35.92;18.70;;;;;;;;;;5021547;28;20084;-42
2022/04/26 19:08:22;;;;;;;20.63;11.52;;;;;;;;;;5022162;28;20078;-42
2022/04/26 19:13:37;;;;;;;45.78;24.90;;;;;;;;;;5020864;28;20040;-43